Centerville, IA

12:15 PM CST on December 03, 2016 (GMT -0600)
550th St Centerville IOWA | | Change Station

Elev 1001 ft 40.68 °N, 92.86 °W | Updated 2 minutes ago

Overcast
Overcast
41.2 °F
Feels Like 38 °F
N
4.7
Wind Variable Wind from South

Today
High -- | Low -- °F
--% Chance of Precip.
Yesterday
High -- | Low -- °F
Precip. -- in
Pressure 30.35 in
Visibility 10.0 miles
Clouds Overcast 2400 ft
Windchill 38 °F
Dew Point 33 °F
Humidity 73%
Rainfall 0.00 in
Snow Depth Not available.
7:18 AM 4:44 PM
Waxing Crescent, 16% visible
METAR KOTM 031753Z AUTO 16008KT 10SM OVC024 04/M02 A3032 RMK AO2 SLP275 T00391017 10044 20006 50001
Pressure 30.35 in
Visibility 10.0 miles
Clouds Overcast 2400 ft
Windchill 38 °F
Dew Point 33 °F
Humidity 73%
Rainfall 0.00 in
Snow Depth Not available.
7:18 AM 4:44 PM
Waxing Crescent, 16% visible
METAR KOTM 031753Z AUTO 16008KT 10SM OVC024 04/M02 A3032 RMK AO2 SLP275 T00391017 10044 20006 50001

10-Day Weather Forecast

Almanac

Astronomy

Dec. 03, 2016 Rise Set
Actual Time
Civil Twilight
Nautical Twilight
Astronomical Twilight
Moon
Length of Visible Light
Length of Day
Tomorrow will be .
, % of the Moon is Illuminated

Today's Extremes

State Highs State Lows

Community

WunderPhotos

Upload Photos

1,955,457 photos uploaded!

WunderBlog® & News

Nearby

Air Quality

  Air Quality AQ Index Pollutant
Not available.

Snow Depth

Station Depth Elevation

Earthquake Activity

City Distance Mag. Time & Date
Minimum magnitude displayed is 2.5.

Coastal Water Temperatures

Place Temperature

Stations

Nearby Weather Stations

Station Location Temp. Windchill Dew Point Humidity Wind Precip. Elev Updated Type
                   

Watches & Warnings

There are currently no watches in effect.